createdAt,value
2019-02-05T07:55:15.022Z,28.77
2019-02-05T08:00:17.186Z,35.30
2019-02-05T08:05:16.534Z,34.17
2019-02-05T08:10:13.510Z,38.90
2019-02-05T08:15:11.582Z,30.93
2019-02-05T08:20:09.246Z,26.57
2019-02-05T08:25:06.700Z,33.33
2019-02-05T08:30:02.464Z,29.00
2019-02-05T08:34:58.110Z,26.27
2019-02-05T08:39:53.862Z,22.63
2019-02-05T08:44:49.688Z,27.77
2019-02-05T08:49:45.550Z,26.03
2019-02-05T08:54:41.524Z,19.67
2019-02-05T08:59:37.339Z,20.37
2019-02-05T09:04:33.303Z,28.70
2019-02-05T09:09:29.236Z,21.77
2019-02-05T09:14:25.068Z,25.23
2019-02-05T09:19:21.224Z,26.63
2019-02-05T09:24:17.696Z,24.23
2019-02-05T09:29:13.567Z,24.10
2019-02-05T09:34:09.885Z,40.37
2019-02-05T09:39:08.639Z,22.93
2019-02-05T09:44:04.718Z,23.87
2019-02-05T09:49:00.587Z,26.30
2019-02-05T09:53:56.453Z,19.90
2019-02-05T09:58:52.413Z,26.40
2019-02-05T10:03:50.493Z,19.87
2019-02-05T10:08:46.411Z,16.73
2019-02-05T10:13:42.405Z,17.00
2019-02-05T10:18:38.337Z,22.77
2019-02-05T10:23:34.390Z,19.50
2019-02-05T10:28:31.808Z,20.80
2019-02-05T10:33:28.112Z,16.63
2019-02-05T10:38:24.351Z,16.00
2019-02-05T10:43:20.468Z,13.30
2019-02-05T10:48:16.596Z,14.47
2019-02-05T10:53:12.691Z,13.80
2019-02-05T10:58:11.856Z,13.90
2019-02-05T11:03:08.791Z,12.93
2019-02-05T11:08:05.852Z,12.07
2019-02-05T11:13:03.004Z,14.37
2019-02-05T11:17:59.523Z,13.40
2019-02-05T11:22:56.198Z,12.13
2019-02-05T11:27:52.386Z,16.53
2019-02-05T11:32:48.577Z,11.13
2019-02-05T11:37:44.873Z,10.37
2019-02-05T11:42:41.098Z,10.93
2019-02-05T11:47:38.265Z,12.10
2019-02-05T11:52:34.148Z,11.00
2019-02-05T11:57:30.033Z,8.90
2019-02-05T12:02:25.805Z,11.33
2019-02-05T12:07:22.010Z,11.27
2019-02-05T12:12:17.836Z,10.90
2019-02-05T12:17:13.845Z,9.47
2019-02-05T12:22:09.609Z,11.17
2019-02-05T12:27:07.297Z,12.40
2019-02-05T12:32:03.316Z,11.63
2019-02-05T12:36:59.080Z,11.00
2019-02-05T12:41:54.867Z,10.50
2019-02-05T12:46:50.720Z,9.60
2019-02-05T12:51:46.547Z,9.97
2019-02-05T12:56:42.753Z,11.00
2019-02-05T13:01:38.544Z,9.97
2019-02-05T13:06:34.221Z,10.80
2019-02-05T13:11:30.048Z,13.17
2019-02-05T13:16:25.857Z,8.87
2019-02-05T13:21:21.681Z,11.90
2019-02-05T13:26:17.418Z,14.00
2019-02-05T13:31:13.377Z,12.77
2019-02-05T13:36:11.778Z,14.47
2019-02-05T13:41:07.608Z,14.67
2019-02-05T13:46:03.857Z,14.57
2019-02-05T13:50:59.598Z,12.53
2019-02-05T13:55:57.906Z,13.87
2019-02-05T14:00:56.385Z,13.63
2019-02-05T14:05:52.239Z,12.60
2019-02-05T14:10:51.089Z,14.53
2019-02-05T14:15:48.699Z,14.47
2019-02-05T14:20:44.264Z,14.63
2019-02-05T14:25:40.088Z,12.73
2019-02-05T14:30:38.384Z,13.63
2019-02-05T14:35:34.172Z,12.60
2019-02-05T14:40:29.864Z,13.27
2019-02-05T14:45:25.812Z,14.90
2019-02-05T14:50:23.950Z,16.30
2019-02-05T14:55:19.779Z,19.73
2019-02-05T15:00:31.491Z,16.37
2019-02-05T15:05:27.183Z,18.17
2019-02-05T15:10:23.118Z,20.33
2019-02-05T15:15:20.096Z,24.40
2019-02-05T15:20:23.014Z,34.00
2019-02-05T15:25:18.727Z,25.30
2019-02-05T15:30:18.354Z,19.23
2019-02-05T15:35:14.490Z,19.60
2019-02-05T15:40:11.289Z,18.37
2019-02-05T15:45:08.476Z,18.20
2019-02-05T15:50:06.373Z,15.33
2019-02-05T15:55:02.379Z,14.87
2019-02-05T15:59:59.117Z,25.37
2019-02-05T16:04:54.884Z,23.50
2019-02-05T16:09:50.886Z,17.23
2019-02-05T16:14:46.634Z,41.07
2019-02-05T16:19:42.607Z,36.13
2019-02-05T16:24:38.827Z,29.63
2019-02-05T16:29:34.506Z,23.50
2019-02-05T16:34:32.114Z,20.47
2019-02-05T16:39:27.793Z,19.63
2019-02-05T16:44:23.514Z,17.87
2019-02-05T16:49:22.204Z,28.90
2019-02-05T16:54:16.844Z,55.00
2019-02-05T16:59:12.704Z,23.90
2019-02-05T17:04:08.328Z,37.87
2019-02-05T17:09:05.827Z,24.40
2019-02-05T17:14:03.488Z,26.10
2019-02-05T17:18:59.224Z,21.97
2019-02-05T17:23:55.152Z,25.70
2019-02-05T17:28:50.875Z,25.23
2019-02-05T17:33:46.568Z,40.33
2019-02-05T17:38:42.311Z,42.93
2019-02-05T17:43:38.187Z,41.77
2019-02-05T17:48:34.306Z,40.50
2019-02-05T17:53:30.012Z,33.23
2019-02-05T17:58:25.738Z,37.20
2019-02-05T18:03:21.648Z,29.07
2019-02-05T18:08:30.190Z,27.07
2019-02-05T18:13:26.200Z,39.60
2019-02-05T18:18:21.917Z,30.10
2019-02-05T18:23:17.601Z,36.77
2019-02-05T18:28:13.404Z,173.80
2019-02-05T18:33:09.187Z,139.97
2019-02-05T18:38:05.534Z,70.90
2019-02-05T18:43:02.625Z,76.33
2019-02-05T18:48:01.471Z,85.07
2019-02-05T18:52:57.879Z,50.13
2019-02-05T18:57:54.070Z,36.57
2019-02-05T19:02:49.978Z,35.27
2019-02-05T19:07:47.129Z,44.03
2019-02-05T19:12:42.867Z,47.37
2019-02-05T19:17:41.090Z,51.70
2019-02-05T19:22:36.837Z,62.27
2019-02-05T19:27:32.530Z,47.73
2019-02-05T19:32:30.036Z,36.83
2019-02-05T19:37:26.725Z,36.67
2019-02-05T19:42:22.724Z,42.67
2019-02-05T19:47:29.124Z,37.43
2019-02-05T19:52:27.624Z,29.77
2019-02-05T19:57:24.690Z,32.30
2019-02-05T20:02:21.085Z,38.20
2019-02-05T20:07:17.059Z,42.90
2019-02-05T20:12:13.131Z,37.10
2019-02-05T20:17:09.054Z,39.23
2019-02-05T20:22:04.958Z,47.20
2019-02-05T20:27:00.728Z,45.50
2019-02-05T20:31:56.827Z,40.40
2019-02-05T20:36:53.091Z,46.43
2019-02-05T20:41:52.730Z,43.53
2019-02-05T20:46:49.199Z,45.73
2019-02-05T20:51:46.247Z,44.20
2019-02-05T20:56:44.417Z,43.90
2019-02-05T21:01:43.882Z,41.30
2019-02-05T21:06:41.197Z,33.93
2019-02-05T21:11:37.292Z,29.43
2019-02-05T21:16:33.035Z,33.67
2019-02-05T21:21:34.914Z,29.57
2019-02-05T21:26:30.615Z,44.47
2019-02-05T21:31:26.420Z,41.97
2019-02-05T21:36:22.095Z,46.63
2019-02-05T21:41:17.807Z,39.43
2019-02-05T21:46:13.717Z,43.33
2019-02-05T21:51:09.388Z,46.83
2019-02-05T21:56:05.527Z,46.37
2019-02-05T22:01:01.333Z,44.70
2019-02-05T22:05:58.092Z,44.43
2019-02-05T22:10:55.195Z,41.43
2019-02-05T22:15:50.802Z,43.47
2019-02-05T22:20:49.292Z,40.63
2019-02-05T22:25:45.286Z,42.13
2019-02-05T22:30:40.948Z,44.47
2019-02-05T22:35:37.185Z,44.53
2019-02-05T22:40:32.903Z,43.57
2019-02-05T22:45:30.731Z,44.90
2019-02-05T22:50:28.126Z,46.70
2019-02-05T22:55:23.962Z,41.10
2019-02-05T23:00:39.360Z,38.97
2019-02-05T23:06:23.318Z,43.60
2019-02-05T23:11:55.851Z,41.80
2019-02-05T23:16:52.067Z,43.40
2019-02-05T23:21:48.154Z,47.40
2019-02-05T23:26:43.850Z,42.47
2019-02-05T23:31:39.551Z,35.03
2019-02-05T23:36:35.227Z,42.87
2019-02-05T23:41:30.908Z,45.23
2019-02-05T23:46:26.648Z,61.60
2019-02-05T23:51:22.317Z,60.50
2019-02-05T23:56:25.667Z,71.20
